Time;durP1;ratioP1;P1;durP2;ratioP2;P2;SDS_P1;SDS_P2;PMS_P1;PMS_P2;Temp;Humidity;BMP_temperature;BMP_pressure;BME280_temperature;BME280_humidity;BME280_pressure;Samples;Min_cycle;Max_cycle;Signal;HPM_P1;HPM_P2
2021/04/20 00:01:28;;;;;;;13.95;10.90;;;;;;;5.92;100.00;99075.86;1720952;82;21145;-71
2021/04/20 00:03:56;;;;;;;20.52;11.70;;;;;;;5.90;100.00;99072.09;1689707;83;21349;-71
2021/04/20 00:06:25;;;;;;;;;;;;;;;5.87;100.00;99069.89;1713935;83;20943;-71
2021/04/20 00:08:55;;;;;;;18.00;11.33;;;;;;;5.83;100.00;99061.28;1711392;83;20247;-71
2021/04/20 00:11:23;;;;;;;16.77;11.97;;;;;;;5.78;100.00;99064.64;1711513;83;21077;-71
2021/04/20 00:13:51;;;;;;;13.75;10.28;;;;;;;5.76;100.00;99056.91;1711412;83;21573;-71
2021/04/20 00:16:20;;;;;;;25.30;15.30;;;;;;;5.76;100.00;99058.77;1711150;83;25179;-71
2021/04/20 00:18:48;;;;;;;26.70;16.73;;;;;;;5.79;100.00;99060.42;1711200;83;21693;-72
2021/04/20 00:21:17;;;;;;;27.40;15.32;;;;;;;5.85;100.00;99053.87;1711569;82;21094;-71
2021/04/20 00:23:46;;;;;;;19.55;13.13;;;;;;;5.88;100.00;99046.73;1711341;83;21660;-71
2021/04/20 00:26:15;;;;;;;22.75;14.25;;;;;;;5.89;100.00;99050.50;1711217;82;21129;-71
2021/04/20 00:28:46;;;;;;;24.85;14.25;;;;;;;5.91;100.00;99047.09;1711475;83;21375;-71
2021/04/20 00:31:14;;;;;;;29.10;17.15;;;;;;;5.92;100.00;99038.56;1711144;83;21185;-73
2021/04/20 00:33:43;;;;;;;37.08;19.20;;;;;;;5.93;100.00;99039.67;1711724;83;21030;-73
2021/04/20 00:36:11;;;;;;;38.35;17.50;;;;;;;5.91;100.00;99035.09;1711473;83;21613;-73
2021/04/20 00:38:40;;;;;;;26.05;15.25;;;;;;;5.89;100.00;99033.19;1710518;83;21201;-71
2021/04/20 00:41:11;;;;;;;16.90;12.35;;;;;;;5.86;100.00;99027.01;1711185;83;21538;-73
2021/04/20 00:43:43;;;;;;;16.07;11.57;;;;;;;5.80;100.00;99024.74;1711462;83;21015;-73
2021/04/20 00:46:19;;;;;;;20.25;13.60;;;;;;;5.78;100.00;99023.36;1710984;83;21018;-71
2021/04/20 00:48:47;;;;;;;22.67;13.93;;;;;;;5.74;100.00;99019.04;1711273;83;21141;-71
2021/04/20 00:51:17;;;;;;;23.65;14.75;;;;;;;5.69;100.00;99014.94;1711346;83;21154;-70
2021/04/20 00:53:47;;;;;;;22.98;14.87;;;;;;;5.68;100.00;99016.50;1711366;83;21267;-71
2021/04/20 00:56:19;;;;;;;;;;;;;;;5.67;100.00;99010.90;1691856;83;21109;-71
2021/04/20 00:58:47;;;;;;;22.20;13.75;;;;;;;5.66;100.00;99015.42;1711378;83;20135;-73
2021/04/20 01:01:15;;;;;;;24.95;13.90;;;;;;;5.64;100.00;99008.19;1711283;83;21074;-73
2021/04/20 01:03:42;;;;;;;22.45;12.73;;;;;;;5.64;100.00;99005.52;1689442;83;21054;-73
2021/04/20 01:06:10;;;;;;;26.65;13.55;;;;;;;5.63;100.00;98996.42;1711443;83;21819;-72
2021/04/20 01:08:39;;;;;;;22.30;13.28;;;;;;;5.63;100.00;99000.42;1711436;83;21042;-73
2021/04/20 01:11:08;;;;;;;18.60;12.37;;;;;;;5.63;100.00;98997.23;1711568;83;21074;-73
2021/04/20 01:13:36;;;;;;;19.65;12.80;;;;;;;5.61;100.00;98999.84;1711339;83;21172;-72
2021/04/20 01:16:05;;;;;;;19.33;12.50;;;;;;;5.61;100.00;98993.19;1711777;83;21161;-73
2021/04/20 01:18:38;;;;;;;19.80;12.23;;;;;;;5.58;100.00;98993.97;1711615;83;22108;-74
2021/04/20 01:21:14;;;;;;;20.57;12.95;;;;;;;5.58;100.00;98989.97;1710618;82;21204;-73
2021/04/20 01:24:10;;;;;;;22.75;12.58;;;;;;;5.59;100.00;98986.78;1710411;83;21253;-73
2021/04/20 01:26:43;;;;;;;23.32;13.30;;;;;;;5.58;100.00;98987.81;1711146;83;21169;-73
2021/04/20 01:29:12;;;;;;;22.30;14.50;;;;;;;5.58;100.00;98984.65;1711457;83;20979;-73
2021/04/20 01:31:43;;;;;;;20.12;13.65;;;;;;;5.58;100.00;98978.48;1711702;83;25502;-73
2021/04/20 01:34:13;;;;;;;23.50;14.85;;;;;;;5.59;100.00;98972.14;1711145;83;21186;-73
2021/04/20 01:36:40;;;;;;;20.92;13.03;;;;;;;5.58;100.00;98972.67;1713072;83;21170;-73
2021/04/20 01:39:10;;;;;;;20.97;13.80;;;;;;;5.58;100.00;98968.67;1711571;83;21596;-72
2021/04/20 01:41:38;;;;;;;19.90;13.08;;;;;;;5.59;100.00;98966.28;1711415;83;21383;-72
2021/04/20 01:44:06;;;;;;;;;;;;;;;5.62;100.00;98969.00;1713782;83;21610;-72
2021/04/20 01:46:35;;;;;;;17.90;11.83;;;;;;;5.66;100.00;98970.66;1711191;82;20163;-72
2021/04/20 01:49:03;;;;;;;38.00;13.80;;;;;;;5.66;100.00;98964.83;1711262;83;21177;-71
2021/04/20 01:51:31;;;;;;;19.35;12.88;;;;;;;5.67;100.00;98957.12;1711117;83;21177;-71
2021/04/20 01:53:59;;;;;;;18.00;12.73;;;;;;;5.69;100.00;98958.22;1710870;83;21153;-71
2021/04/20 01:56:28;;;;;;;17.20;12.63;;;;;;;5.69;100.00;98958.22;1711611;83;21570;-72
2021/04/20 01:58:59;;;;;;;21.15;13.08;;;;;;;5.72;100.00;98949.75;1711104;83;21711;-71
2021/04/20 02:01:28;;;;;;;23.10;13.93;;;;;;;5.72;100.00;98947.89;1711296;83;21089;-71
2021/04/20 02:03:56;;;;;;;28.50;14.35;;;;;;;5.70;100.00;98942.52;1710892;82;21149;-72
2021/04/20 02:06:25;;;;;;;24.60;16.25;;;;;;;5.67;100.00;98947.80;1712609;83;21045;-72
2021/04/20 02:08:52;;;;;;;34.67;15.75;;;;;;;5.64;100.00;98942.95;1712496;83;21194;-72
2021/04/20 02:11:23;;;;;;;26.95;15.65;;;;;;;5.63;100.00;98946.64;1713029;83;21022;-72
2021/04/20 02:13:51;;;;;;;23.07;14.73;;;;;;;5.59;100.00;98943.66;1712668;83;21109;-72
2021/04/20 02:16:20;;;;;;;27.75;15.93;;;;;;;5.59;100.00;98952.17;1712671;83;21181;-71
2021/04/20 02:18:53;;;;;;;26.62;15.38;;;;;;;5.59;100.00;98948.18;1711551;83;21172;-71
2021/04/20 02:21:22;;;;;;;27.62;15.98;;;;;;;5.59;100.00;98946.32;1717774;82;21261;-71
2021/04/20 02:23:51;;;;;;;34.10;17.02;;;;;;;5.57;100.00;98946.27;1722443;83;21200;-71
2021/04/20 02:26:27;;;;;;;;;;;;;;;5.53;100.00;98943.25;1725071;82;21153;-71
2021/04/20 02:28:59;;;;;;;31.65;16.90;;;;;;;5.48;100.00;98943.68;1722233;83;20242;-71
2021/04/20 02:31:28;;;;;;;32.30;16.67;;;;;;;5.45;100.00;98942.30;1687083;83;21239;-71
2021/04/20 02:33:57;;;;;;;30.40;16.55;;;;;;;5.42;100.00;98940.64;1694868;83;22369;-71
2021/04/20 02:36:26;;;;;;;27.93;17.40;;;;;;;5.40;100.00;98933.41;1715169;83;20943;-71
2021/04/20 02:38:54;;;;;;;31.33;18.45;;;;;;;5.40;100.00;98934.22;1715025;82;21003;-73
2021/04/20 02:41:23;;;;;;;21.07;15.08;;;;;;;5.37;100.00;98929.37;1714767;83;21015;-71
2021/04/20 02:43:51;;;;;;;32.17;17.65;;;;;;;5.33;100.00;98927.68;1715342;82;21592;-70
2021/04/20 02:46:22;;;;;;;;;;;;;;;5.30;100.00;98927.36;1695548;83;22093;-70
2021/04/20 02:48:50;;;;;;;38.45;23.10;;;;;;;5.27;100.00;98923.31;1715115;82;20849;-71
2021/04/20 02:51:17;;;;;;;44.45;30.20;;;;;;;5.25;100.00;98923.26;1693162;83;21847;-71
2021/04/20 02:53:45;;;;;;;52.93;34.93;;;;;;;5.26;100.00;98926.20;1715292;83;21078;-71
2021/04/20 02:56:18;;;;;;;49.77;28.67;;;;;;;5.29;100.00;98926.55;1715456;82;20942;-71
2021/04/20 02:58:46;;;;;;;49.25;21.85;;;;;;;5.31;100.00;98928.44;1715034;83;21644;-71
2021/04/20 03:01:24;;;;;;;;;;;;;;;5.33;100.00;98927.68;1717574;83;21081;-71
2021/04/20 03:03:53;;;;;;;;;;;;;;;5.36;100.00;98925.07;1717596;83;20263;-71
2021/04/20 03:06:22;;;;;;;17.12;13.03;;;;;;;5.38;100.00;98928.31;1715125;82;20304;-71
2021/04/20 03:08:53;;;;;;;30.35;15.40;;;;;;;5.36;100.00;98921.91;1714828;83;21245;-72
2021/04/20 03:11:26;;;;;;;26.40;16.97;;;;;;;5.38;100.00;98930.97;1714961;83;21413;-72
2021/04/20 03:13:55;;;;;;;35.38;17.00;;;;;;;5.36;100.00;98921.08;1661209;85;21505;-71
2021/04/20 03:16:25;;;;;;;27.70;16.87;;;;;;;5.34;100.00;98925.33;1658585;85;21573;-72
2021/04/20 03:18:53;;;;;;;23.02;13.68;;;;;;;5.32;100.00;98926.08;1687423;85;21129;-70
2021/04/20 03:21:22;;;;;;;24.85;15.00;;;;;;;5.30;100.00;98927.36;1665530;85;21141;-72
2021/04/20 03:23:52;;;;;;;30.23;17.90;;;;;;;5.28;100.00;98922.25;1657821;85;21382;-72
2021/04/20 03:26:38;;;;;;;29.57;20.32;;;;;;;5.27;100.00;98921.98;1657959;86;21197;-71
2021/04/20 03:29:09;;;;;;;30.37;18.95;;;;;;;5.27;100.00;98919.84;1657401;86;21644;-72
2021/04/20 03:31:39;;;;;;;32.15;20.05;;;;;;;5.28;100.00;98916.94;1657929;85;21830;-72
2021/04/20 03:34:21;;;;;;;41.02;16.52;;;;;;;5.30;100.00;98920.17;1657996;86;21193;-72
2021/04/20 03:36:57;;;;;;;34.18;20.05;;;;;;;5.33;100.00;98920.22;1659462;85;21376;-73
2021/04/20 03:39:26;;;;;;;47.50;24.92;;;;;;;5.36;100.00;98917.09;1657934;86;21003;-73
2021/04/20 03:41:59;;;;;;;41.35;25.05;;;;;;;5.39;100.00;98920.63;1657802;85;21145;-72
2021/04/20 03:44:45;;;;;;;31.02;18.57;;;;;;;5.44;100.00;98919.41;1657907;85;21094;-72
2021/04/20 03:47:21;;;;;;;26.90;17.25;;;;;;;5.48;100.00;98919.72;1662150;85;21176;-72
2021/04/20 03:49:51;;;;;;;21.50;15.15;;;;;;;5.50;100.00;98914.45;1678899;85;21221;-72
2021/04/20 03:52:34;;;;;;;19.10;13.05;;;;;;;5.53;100.00;98925.95;1679087;85;21869;-72
2021/04/20 03:55:04;;;;;;;26.33;15.35;;;;;;;5.54;100.00;98919.59;1657215;85;21990;-72
2021/04/20 03:57:35;;;;;;;18.98;12.88;;;;;;;5.56;100.00;98923.34;1679409;85;21142;-71
2021/04/20 04:00:06;;;;;;;17.27;13.35;;;;;;;5.57;100.00;98918.31;1650134;86;21110;-72
2021/04/20 04:02:39;;;;;;;18.87;12.15;;;;;;;5.59;100.00;98917.03;1658274;85;21447;-71
2021/04/20 04:05:09;;;;;;;17.30;12.13;;;;;;;5.62;100.00;98914.42;1629558;87;21617;-72
2021/04/20 04:07:37;;;;;;;21.52;12.80;;;;;;;5.63;100.00;98910.70;1679109;85;21250;-72
2021/04/20 04:10:07;;;;;;;22.40;12.60;;;;;;;5.65;100.00;98908.61;1658173;85;21066;-72
2021/04/20 04:12:38;;;;;;;22.10;14.63;;;;;;;5.68;100.00;98912.13;1679026;85;21214;-72
2021/04/20 04:15:09;;;;;;;21.12;14.25;;;;;;;5.68;100.00;98912.13;1679072;85;21380;-71
2021/04/20 04:17:39;;;;;;;16.87;11.97;;;;;;;5.72;100.00;98910.61;1678934;85;21186;-72
2021/04/20 04:20:09;;;;;;;20.25;14.07;;;;;;;5.78;100.00;98919.00;1677085;84;21264;-71
2021/04/20 04:22:40;;;;;;;15.85;11.80;;;;;;;5.78;100.00;98914.17;1619693;86;21104;-71
2021/04/20 04:25:11;;;;;;;23.95;15.38;;;;;;;5.81;100.00;98913.72;1701879;84;21181;-72
2021/04/20 04:27:45;;;;;;;25.35;15.58;;;;;;;5.83;100.00;98908.14;1702155;83;21364;-71
2021/04/20 04:30:14;;;;;;;32.28;16.12;;;;;;;5.88;100.00;98914.89;1711461;83;20983;-71
2021/04/20 04:32:43;;;;;;;24.10;16.25;;;;;;;5.93;100.00;98906.48;1681274;82;21186;-71
2021/04/20 04:35:12;;;;;;;20.40;14.45;;;;;;;5.98;100.00;98915.92;1717446;83;21158;-71
2021/04/20 04:37:41;;;;;;;22.20;14.47;;;;;;;6.03;100.00;98909.89;1717000;82;21109;-71
2021/04/20 04:40:10;;;;;;;21.95;15.58;;;;;;;6.05;100.00;98907.80;1717701;83;21209;-70
2021/04/20 04:42:38;;;;;;;;;;;;;;;6.11;100.00;98909.48;1719610;83;21185;-70
2021/04/20 04:45:08;;;;;;;27.32;16.52;;;;;;;6.19;100.00;98905.61;1697459;83;20286;-70
2021/04/20 04:47:38;;;;;;;34.33;18.00;;;;;;;6.23;100.00;98903.56;1681729;83;21161;-70
2021/04/20 04:50:09;;;;;;;48.70;25.30;;;;;;;6.28;100.00;98905.51;1716767;83;21561;-71
2021/04/20 04:52:39;;;;;;;37.25;21.17;;;;;;;6.37;100.00;98896.57;1717537;82;21202;-71
2021/04/20 04:55:09;;;;;;;34.38;17.20;;;;;;;6.46;100.00;98899.66;1715013;83;21149;-70
2021/04/20 04:57:36;;;;;;;31.62;17.60;;;;;;;6.59;100.00;98898.81;1716875;82;21094;-68
2021/04/20 05:00:06;;;;;;;33.73;17.90;;;;;;;6.65;100.00;98895.69;1717072;83;21046;-70
2021/04/20 05:02:35;;;;;;;26.35;15.03;;;;;;;6.67;100.00;98898.13;1639911;85;21646;-71
2021/04/20 05:05:06;;;;;;;31.80;16.15;;;;;;;6.66;100.00;98905.29;1691002;84;22358;-70
2021/04/20 05:07:34;;;;;;;22.58;11.45;;;;;;;6.58;100.00;98899.05;1682978;85;21208;-68
2021/04/20 05:10:29;;;;;;;16.42;12.93;;;;;;;6.54;100.00;98901.41;1716707;83;21220;-70
2021/04/20 05:13:07;;;;;;;18.32;13.25;;;;;;;6.56;100.00;98893.94;1851072;77;22080;-71
2021/04/20 05:15:35;;;;;;;16.20;12.03;;;;;;;6.50;100.00;98894.93;1818660;78;21684;-72
2021/04/20 05:18:09;;;;;;;17.95;12.53;;;;;;;6.48;100.00;98898.36;1749018;82;21639;-71
2021/04/20 05:20:41;;;;;;;21.45;14.68;;;;;;;6.53;100.00;98902.44;1782492;78;21584;-71
2021/04/20 05:23:09;;;;;;;18.50;13.38;;;;;;;6.59;100.00;98897.48;1748575;82;21137;-72
2021/04/20 05:25:37;;;;;;;16.27;11.73;;;;;;;6.67;100.00;98904.26;1818797;78;21289;-71
2021/04/20 05:28:06;;;;;;;24.43;14.58;;;;;;;6.69;100.00;98908.00;1818823;78;21038;-70
2021/04/20 05:30:33;;;;;;;;;;;;;;;6.65;100.00;98907.69;1820879;78;21141;-71
2021/04/20 05:33:03;;;;;;;20.37;14.23;;;;;;;6.65;100.00;98899.16;1818800;78;20144;-72
2021/04/20 05:35:31;;;;;;;20.75;14.43;;;;;;;6.80;100.00;98907.11;1748705;81;20999;-70
2021/04/20 05:37:58;;;;;;;23.70;14.35;;;;;;;6.95;100.00;98900.64;1797569;78;21582;-69
2021/04/20 05:40:28;;;;;;;13.55;9.65;;;;;;;7.03;100.00;98910.92;1819116;78;21130;-72
2021/04/20 05:42:56;;;;;;;15.20;11.65;;;;;;;7.09;100.00;98896.58;1748876;81;21168;-71
2021/04/20 05:45:24;;;;;;;20.45;12.68;;;;;;;6.98;100.00;98911.35;1818645;78;28248;-72
2021/04/20 05:47:54;;;;;;;15.60;12.20;;;;;;;6.98;100.00;98911.35;1748949;80;21698;-70
2021/04/20 05:50:25;;;;;;;18.27;12.53;;;;;;;7.01;100.00;98908.22;1818923;78;21655;-69
2021/04/20 05:52:54;;;;;;;17.67;11.97;;;;;;;6.99;100.00;98902.31;1818713;78;21558;-71
2021/04/20 05:55:26;;;;;;;14.23;10.98;;;;;;;7.00;100.00;98895.91;1748543;81;21229;-70
2021/04/20 05:57:58;;;;;;;17.60;12.20;;;;;;;6.97;100.00;98907.08;1787222;78;21141;-67
2021/04/20 06:00:26;;;;;;;23.30;13.95;;;;;;;6.92;100.00;98899.81;1818745;78;20979;-71
2021/04/20 06:02:56;;;;;;;20.68;14.03;;;;;;;6.79;100.00;98903.64;1818680;78;26664;-70
2021/04/20 06:05:27;;;;;;;24.02;14.90;;;;;;;6.78;100.00;98899.87;1748773;82;21575;-71
2021/04/20 06:07:59;;;;;;;23.42;14.07;;;;;;;6.77;100.00;98899.60;1818400;78;21249;-70
2021/04/20 06:10:29;;;;;;;19.85;14.43;;;;;;;6.79;100.00;98904.17;1748779;82;21070;-69
2021/04/20 06:12:57;;;;;;;21.95;14.30;;;;;;;6.72;100.00;98904.33;1818220;78;21185;-69
2021/04/20 06:15:27;;;;;;;22.98;16.05;;;;;;;6.72;100.00;98903.00;1818528;78;21121;-69
2021/04/20 06:17:56;;;;;;;18.02;12.80;;;;;;;6.75;100.00;98900.37;1748971;82;21419;-71
2021/04/20 06:20:25;;;;;;;17.37;13.48;;;;;;;6.77;100.00;98899.07;1818078;78;21456;-70
2021/04/20 06:22:57;;;;;;;14.70;11.43;;;;;;;6.82;100.00;98896.47;1748401;82;21611;-70
2021/04/20 06:25:25;;;;;;;18.05;12.35;;;;;;;6.89;100.00;98902.17;1786493;78;21201;-70
2021/04/20 06:27:54;;;;;;;18.07;12.63;;;;;;;6.96;100.00;98896.14;1748536;81;21161;-71
2021/04/20 06:30:23;;;;;;;22.30;16.57;;;;;;;7.07;100.00;98885.87;1818029;78;21118;-69
2021/04/20 06:32:53;;;;;;;19.85;15.18;;;;;;;7.26;100.00;98889.05;1817952;78;21195;-70
2021/04/20 06:35:22;;;;;;;23.70;16.40;;;;;;;7.43;100.00;98899.14;1748087;82;21129;-72
2021/04/20 06:37:52;;;;;;;22.55;15.08;;;;;;;7.58;100.00;98895.84;1817855;78;21975;-72
2021/04/20 06:40:25;;;;;;;18.00;13.48;;;;;;;8.03;100.00;98889.34;1748389;81;21196;-72
2021/04/20 06:43:02;;;;;;;16.55;13.28;;;;;;;8.56;100.00;98884.20;1817222;78;21126;-71
2021/04/20 06:45:38;;;;;;;17.57;9.60;;;;;;;9.09;100.00;98889.09;1748268;82;21382;-69
2021/04/20 06:48:36;;;;;;;12.07;9.13;;;;;;;9.50;100.00;98889.24;1817422;78;21189;-70
2021/04/20 06:51:00;;;;;;;10.38;8.88;;;;;;;9.77;100.00;98894.95;1817348;78;21593;-71
2021/04/20 06:53:37;;;;;;;13.03;10.07;;;;;;;9.71;100.00;98891.46;1748340;82;21807;-71
2021/04/20 06:56:10;;;;;;;;;;;;;;;9.71;100.00;98891.46;1820468;78;21367;-70
2021/04/20 06:59:04;;;;;;;10.65;8.05;;;;;;;9.61;100.00;98896.26;1817865;78;21650;-71
2021/04/20 07:02:11;;;;;;;7.90;6.67;;;;;;;9.84;100.00;98894.97;1812032;78;21145;-70
2021/04/20 07:09:04;;;;;;;10.90;7.95;;;;;;;9.84;100.00;98887.47;1594223;89;21448;-68
2021/04/20 07:11:35;;;;;;;12.07;7.42;;;;;;;9.22;100.00;98883.25;1593462;89;21647;-68
2021/04/20 07:14:04;;;;;;;14.93;9.78;;;;;;;8.80;100.00;98885.44;1598500;89;21591;-68
2021/04/20 07:16:41;;;;;;;15.25;11.28;;;;;;;8.44;100.00;98882.24;1567826;91;21233;-70
2021/04/20 07:19:56;;;;;;;16.93;10.30;;;;;;;8.29;100.00;98883.70;1873240;75;22692;-68
2021/04/20 07:23:10;;;;;;;13.78;10.25;;;;;;;8.13;100.00;98881.95;1818777;78;20991;-70
2021/04/20 07:26:01;;;;;;;18.90;12.03;;;;;;;8.27;100.00;98877.80;1818545;78;22463;-69
2021/04/20 07:28:53;;;;;;;18.25;12.07;;;;;;;8.61;100.00;98871.40;1818606;78;21027;-69
2021/04/20 07:32:17;;;;;;;16.97;11.93;;;;;;;9.13;100.00;98870.08;1808518;78;21593;-69
2021/04/20 07:35:28;;;;;;;14.23;10.88;;;;;;;9.44;100.00;98870.22;1786584;80;21038;-69
2021/04/20 07:38:12;;;;;;;11.03;8.80;;;;;;;9.52;100.00;98866.22;1786874;79;20912;-70
2021/04/20 07:41:20;;;;;;;10.48;8.25;;;;;;;9.65;100.00;98864.37;1776021;80;21195;-70
2021/04/20 07:44:02;;;;;;;12.75;8.95;;;;;;;9.79;100.00;98866.02;1786497;80;21050;-70
2021/04/20 07:46:46;;;;;;;10.28;7.50;;;;;;;9.71;100.00;98863.33;1786760;80;21070;-71
2021/04/20 07:49:29;;;;;;;10.48;8.20;;;;;;;9.94;100.00;98863.89;1786843;80;21027;-70
2021/04/20 07:52:14;;;;;;;9.88;8.20;;;;;;;10.10;100.00;98868.21;1787013;79;21264;-71
2021/04/20 07:54:59;;;;;;;8.35;7.55;;;;;;;9.86;100.00;98863.34;1786791;80;21270;-70
2021/04/20 07:57:58;;;;;;;12.53;7.60;;;;;;;9.97;100.00;98862.84;1786631;80;21129;-70
2021/04/20 09:17:03;;;;;;;15.85;13.48;;;;;;;11.17;100.00;98827.01;1775813;79;21138;-69
2021/04/20 09:19:40;;;;;;;14.07;12.10;;;;;;;11.74;100.00;98817.55;1686272;83;21220;-68
2021/04/20 09:22:49;;;;;;;16.48;12.50;;;;;;;11.41;100.00;98816.39;1685115;84;21086;-69
2021/04/20 09:25:54;;;;;;;16.10;12.73;;;;;;;11.11;100.00;98812.78;1826008;77;22662;-68
2021/04/20 09:28:39;;;;;;;15.03;12.07;;;;;;;10.90;100.00;98808.55;1798052;78;20987;-67
2021/04/20 09:31:12;;;;;;;12.65;10.78;;;;;;;10.72;100.00;98806.73;1755667;80;22033;-68
2021/04/20 09:33:50;;;;;;;21.12;14.98;;;;;;;10.58;100.00;98807.03;1725876;81;21700;-68
2021/04/20 09:36:19;;;;;;;18.23;13.67;;;;;;;10.47;100.00;98806.26;1686408;83;21221;-69
2021/04/20 09:38:50;;;;;;;17.30;13.22;;;;;;;10.31;100.00;98804.66;1700629;82;21198;-68
2021/04/20 09:41:32;;;;;;;17.52;13.43;;;;;;;10.12;100.00;98800.89;1708125;83;21513;-69
2021/04/20 09:44:48;;;;;;;16.65;11.70;;;;;;;10.16;100.00;98801.97;1712222;81;21200;-68
2021/04/20 09:47:40;;;;;;;19.67;13.20;;;;;;;10.14;100.00;98798.20;1689052;83;21027;-68
2021/04/20 09:50:26;;;;;;;13.18;11.05;;;;;;;10.31;100.00;98801.98;1703746;82;21012;-67
2021/04/20 09:53:35;;;;;;;17.95;12.70;;;;;;;10.46;100.00;98801.16;1715177;83;21079;-69
2021/04/20 09:56:29;;;;;;;21.37;10.50;;;;;;;10.96;100.00;98800.76;1723004;81;21468;-70
2021/04/20 09:59:21;;;;;;;11.53;9.48;;;;;;;11.17;100.00;98800.16;1717671;82;21234;-70
2021/04/20 10:02:49;;;;;;;15.38;10.68;;;;;;;11.04;100.00;98791.33;1810191;77;22170;-70
2021/04/20 10:06:05;;;;;;;15.88;11.30;;;;;;;10.76;100.00;98786.88;1745098;80;21015;-70
2021/04/20 10:09:25;;;;;;;12.98;10.75;;;;;;;10.76;100.00;98784.73;1758452;81;21383;-70
2021/04/20 10:13:17;;;;;;;13.38;10.78;;;;;;;11.01;100.00;98783.83;1578487;90;21079;-69
2021/04/20 10:17:04;;;;;;;11.18;9.50;;;;;;;11.96;100.00;98773.33;1837994;76;22829;-70
2021/04/20 10:34:15;;;;;;;19.70;14.55;;;;;;;13.41;96.71;98772.83;1497994;94;21088;-69
2021/04/20 10:36:57;;;;;;;12.25;9.88;;;;;;;13.81;94.78;98767.36;1874777;75;22257;-68
2021/04/20 10:39:29;;;;;;;12.68;11.12;;;;;;;13.76;94.43;98766.65;1819434;78;20924;-71
2021/04/20 10:41:58;;;;;;;14.25;10.80;;;;;;;13.29;99.67;98769.21;1819468;78;21798;-70
2021/04/20 10:44:31;;;;;;;12.98;10.28;;;;;;;13.00;100.00;98770.08;1819405;78;20983;-71
2021/04/20 10:46:59;;;;;;;13.45;11.00;;;;;;;12.68;100.00;98767.25;1819160;78;21011;-71
2021/04/20 10:49:31;;;;;;;11.97;10.40;;;;;;;12.49;100.00;98767.97;1819458;78;21605;-71
2021/04/20 10:52:01;;;;;;;12.78;10.55;;;;;;;12.10;100.00;98756.81;1819390;78;20904;-70
2021/04/20 10:54:35;;;;;;;14.75;11.70;;;;;;;11.86;100.00;98762.09;1762753;78;21413;-71
2021/04/20 10:57:04;;;;;;;15.75;11.53;;;;;;;11.66;100.00;98761.70;1819306;78;21016;-71
2021/04/20 10:59:37;;;;;;;14.10;11.70;;;;;;;11.35;100.00;98763.23;1818959;78;21023;-70
2021/04/20 11:02:13;;;;;;;10.72;9.60;;;;;;;11.28;100.00;98764.08;1819188;78;21006;-70
2021/04/20 11:04:45;;;;;;;18.65;11.45;;;;;;;11.58;100.00;98766.31;1789303;78;21169;-71
2021/04/20 11:07:29;;;;;;;16.10;10.58;;;;;;;11.60;100.00;98757.44;1819419;78;21203;-71
2021/04/20 11:10:04;;;;;;;11.88;8.80;;;;;;;11.67;100.00;98776.73;1818558;78;21513;-70
2021/04/20 11:12:32;;;;;;;11.15;9.93;;;;;;;11.35;100.00;98762.44;1816597;78;21170;-70
2021/04/20 11:14:59;;;;;;;7.35;6.47;;;;;;;11.03;100.00;98760.20;1742625;82;21181;-70
2021/04/20 11:17:57;;;;;;;8.73;5.58;;;;;;;10.53;100.00;98785.58;1742788;82;21194;-69
2021/04/20 11:20:38;;;;;;;;;;;;;;;9.77;100.00;98774.35;1745168;82;21427;-70
2021/04/20 11:23:42;;;;;;;13.55;7.62;;;;;;;9.04;100.00;98775.80;1742649;82;20289;-71
2021/04/20 11:26:21;;;;;;;11.35;9.00;;;;;;;8.57;100.00;98752.06;1604204;88;21217;-69
2021/04/20 11:45:30;;;;;;;8.78;6.97;;;;;;;6.67;100.00;98776.78;1646578;85;21105;-69
2021/04/20 11:48:27;;;;;;;12.40;9.83;;;;;;;6.73;100.00;98775.78;1463114;97;21214;-67
2021/04/20 11:51:05;;;;;;;10.40;8.78;;;;;;;6.90;100.00;98771.19;1825002;77;22049;-67
2021/04/20 11:53:40;;;;;;;10.85;8.98;;;;;;;6.96;100.00;98774.21;1810345;78;21043;-68
2021/04/20 11:56:12;;;;;;;9.48;8.10;;;;;;;6.99;100.00;98765.70;1810619;78;22079;-69
2021/04/20 11:58:43;;;;;;;10.78;9.15;;;;;;;7.06;100.00;98765.52;1775004;79;20873;-69
2021/04/20 12:01:21;;;;;;;12.55;8.98;;;;;;;7.15;100.00;98759.99;1797460;77;20932;-68
2021/04/20 12:03:59;;;;;;;14.80;11.63;;;;;;;7.29;100.00;98757.75;1730523;82;21146;-68
2021/04/20 12:06:49;;;;;;;19.48;14.33;;;;;;;7.42;100.00;98748.02;1743986;80;21501;-69
2021/04/20 12:09:26;;;;;;;53.13;29.15;;;;;;;7.59;100.00;98747.08;1745908;81;21203;-69
2021/04/20 12:11:54;;;;;;;253.60;111.90;;;;;;;7.74;100.00;98747.20;1746122;81;21506;-64
2021/04/20 12:14:23;;;;;;;154.30;76.60;;;;;;;7.90;100.00;98740.12;1748468;81;20936;-65
2021/04/20 12:16:57;;;;;;;145.22;72.32;;;;;;;7.97;100.00;98738.58;1722075;82;20943;-65
2021/04/20 12:19:31;;;;;;;40.45;25.35;;;;;;;8.04;100.00;98735.95;1730695;82;20912;-64
2021/04/20 12:22:02;;;;;;;18.57;13.68;;;;;;;8.22;100.00;98734.73;1732994;82;21434;-67
2021/04/20 12:24:30;;;;;;;12.40;10.82;;;;;;;8.33;100.00;98734.27;1713840;82;20948;-68
2021/04/20 12:27:04;;;;;;;14.55;10.82;;;;;;;8.38;100.00;98731.62;1723247;82;21021;-66
2021/04/20 12:29:41;;;;;;;22.32;13.40;;;;;;;8.48;100.00;98727.70;1729713;82;20928;-64
2021/04/20 12:32:17;;;;;;;11.25;9.53;;;;;;;8.60;100.00;98724.81;1729567;82;21001;-64
2021/04/20 12:34:45;;;;;;;13.50;9.18;;;;;;;8.75;100.00;98718.72;1731206;82;21208;-64
2021/04/20 12:41:02;;;;;;;55.90;24.40;;;;;;;8.98;100.00;98712.89;1819543;77;22730;-67
2021/04/20 12:43:35;;;;;;;101.07;48.42;;;;;;;9.05;100.00;98720.67;1802168;79;21011;-66
2021/04/20 12:46:09;;;;;;;28.40;15.15;;;;;;;9.18;100.00;98718.02;1750147;80;21146;-66
2021/04/20 12:48:42;;;;;;;10.68;8.23;;;;;;;9.32;100.00;98711.63;1748009;79;21042;-68
2021/04/20 12:51:16;;;;;;;73.72;26.45;;;;;;;9.47;100.00;98717.00;1763818;80;20988;-65
2021/04/20 12:53:46;;;;;;;19.07;10.23;;;;;;;9.68;100.00;98716.48;1724996;80;20991;-66
2021/04/20 12:56:30;;;;;;;148.87;50.65;;;;;;;9.76;100.00;98716.48;1744672;80;21061;-64
2021/04/20 12:58:59;;;;;;;9.05;7.20;;;;;;;9.66;100.00;98715.40;1724310;82;21222;-65
2021/04/20 13:01:28;;;;;;;80.77;30.92;;;;;;;9.57;100.00;98711.64;1733465;81;21145;-66
2021/04/20 13:03:56;;;;;;;;;;;;;;;9.60;100.00;98715.15;1735915;81;20967;-65
2021/04/20 13:06:23;;;;;;;25.27;14.45;;;;;;;9.72;100.00;98708.70;1741827;81;20281;-65
2021/04/20 13:08:56;;;;;;;25.10;17.67;;;;;;;9.83;100.00;98711.66;1737122;81;21138;-65
2021/04/20 13:11:35;;;;;;;16.40;11.90;;;;;;;9.87;100.00;98712.19;1743363;81;21156;-65
2021/04/20 13:14:05;;;;;;;16.52;11.88;;;;;;;9.76;100.00;98708.44;1743897;81;21108;-65
2021/04/20 13:16:33;;;;;;;17.80;11.95;;;;;;;9.65;100.00;98700.41;1727484;81;21174;-66
2021/04/20 13:19:06;;;;;;;8.98;7.97;;;;;;;9.55;100.00;98707.08;1724417;82;21182;-65
2021/04/20 13:21:35;;;;;;;9.73;7.55;;;;;;;9.42;100.00;98703.60;1720146;82;21114;-67
2021/04/20 13:24:05;;;;;;;8.80;7.90;;;;;;;9.29;100.00;98705.48;1697978;82;22146;-66
2021/04/20 13:26:36;;;;;;;30.97;15.43;;;;;;;9.21;100.00;98707.61;1727926;81;21588;-68
2021/04/20 13:30:08;;;;;;;10.53;7.28;;;;;;;9.19;100.00;98706.27;1714435;83;21036;-68
2021/04/20 13:33:02;;;;;;;6.83;6.20;;;;;;;9.12;100.00;98705.17;1687102;84;21133;-66
2021/04/20 13:35:35;;;;;;;5.60;5.10;;;;;;;9.05;100.00;98701.94;1652569;85;21240;-67
2021/04/20 13:38:28;;;;;;;8.83;7.28;;;;;;;8.99;100.00;98701.13;1659457;85;21378;-62
2021/04/20 13:40:59;;;;;;;16.75;9.98;;;;;;;9.03;100.00;98700.05;1683584;83;21117;-65
2021/04/20 13:44:07;;;;;;;9.00;6.35;;;;;;;9.13;100.00;98698.73;1587626;88;21005;-63
2021/04/20 13:47:24;;;;;;;16.12;12.63;;;;;;;9.12;100.00;98694.46;1486570;95;21269;-65
2021/04/20 13:50:12;;;;;;;15.83;10.75;;;;;;;9.31;100.00;98689.92;1829521;77;23362;-65
2021/04/20 13:52:59;;;;;;;15.65;11.93;;;;;;;9.39;100.00;98691.55;1810809;78;20896;-67
2021/04/20 13:55:43;;;;;;;17.73;11.83;;;;;;;9.60;100.00;98689.69;1808317;78;21354;-66
2021/04/20 13:58:31;;;;;;;14.90;12.55;;;;;;;9.77;100.00;98694.75;1748629;81;20937;-64